createdAt,value
2017-08-22T00:01:53.682Z,101411.91
2017-08-22T00:04:21.989Z,101419.06
2017-08-22T00:06:50.298Z,101421.88
2017-08-22T00:09:18.604Z,101414.29
2017-08-22T00:11:46.926Z,101411.38
2017-08-22T00:14:15.241Z,101413.22
2017-08-22T00:16:43.699Z,101412.05
2017-08-22T00:19:12.004Z,101412.45
2017-08-22T00:21:40.310Z,101417.03
2017-08-22T00:24:08.646Z,101418.18
2017-08-22T00:26:36.962Z,101416.69
2017-08-22T00:29:05.261Z,101416.08
2017-08-22T00:31:33.569Z,101407.13
2017-08-22T00:34:01.879Z,101416.20
2017-08-22T00:36:31.178Z,101418.65
2017-08-22T00:38:59.474Z,101423.85
2017-08-22T00:41:27.782Z,101425.95
2017-08-22T00:43:56.086Z,101419.41
2017-08-22T00:46:24.409Z,101420.48
2017-08-22T00:48:52.704Z,101424.64
2017-08-22T00:51:21.005Z,101432.07
2017-08-22T00:53:49.318Z,101434.73
2017-08-22T00:56:17.629Z,101429.75
2017-08-22T00:58:45.947Z,101433.50
2017-08-22T01:01:14.246Z,101431.45
2017-08-22T01:03:42.558Z,101428.78
2017-08-22T01:06:10.852Z,101431.14
2017-08-22T01:08:39.157Z,101432.91
2017-08-22T01:11:07.449Z,101425.38
2017-08-22T01:13:35.764Z,101426.25
2017-08-22T01:16:04.062Z,101425.77
2017-08-22T01:18:32.363Z,101426.36
2017-08-22T01:21:00.694Z,101422.00
2017-08-22T01:23:29.074Z,101432.57
2017-08-22T01:25:57.386Z,101431.88
2017-08-22T01:28:25.677Z,101433.45
2017-08-22T01:30:54.014Z,101437.25
2017-08-22T01:33:22.305Z,101439.78
2017-08-22T01:35:50.661Z,101442.81
2017-08-22T01:38:18.970Z,101438.18
2017-08-22T01:40:47.289Z,101439.81
2017-08-22T01:43:15.586Z,101441.44
2017-08-22T01:45:43.887Z,101444.27
2017-08-22T01:48:12.190Z,101448.16
2017-08-22T01:50:40.483Z,101448.98
2017-08-22T01:53:08.810Z,101445.89
2017-08-22T01:55:37.098Z,101437.67
2017-08-22T01:58:05.422Z,101432.89
2017-08-22T02:00:33.741Z,101440.63
2017-08-22T02:03:02.046Z,101438.89
2017-08-22T02:05:30.348Z,101439.50
2017-08-22T02:07:58.669Z,101438.19
2017-08-22T02:10:26.977Z,101440.29
2017-08-22T02:12:55.280Z,101434.95
2017-08-22T02:15:23.656Z,101426.96
2017-08-22T02:17:51.961Z,101431.62
2017-08-22T02:20:20.269Z,101440.17
2017-08-22T02:22:48.569Z,101433.44
2017-08-22T02:25:16.898Z,101425.80
2017-08-22T02:27:45.202Z,101429.31
2017-08-22T02:30:13.604Z,101433.23
2017-08-22T02:32:41.908Z,101437.73
2017-08-22T02:35:10.217Z,101441.89
2017-08-22T02:37:38.517Z,101441.31
2017-08-22T02:40:06.835Z,101439.75
2017-08-22T02:42:35.138Z,101437.94
2017-08-22T02:45:03.453Z,101439.52
2017-08-22T02:47:31.792Z,101440.14
2017-08-22T02:50:00.106Z,101447.96
2017-08-22T02:52:28.432Z,101441.31
2017-08-22T02:54:56.746Z,101436.93
2017-08-22T02:57:25.078Z,101442.20
2017-08-22T02:59:53.391Z,101439.16
2017-08-22T03:02:21.705Z,101441.96
2017-08-22T03:04:50.025Z,101434.88
2017-08-22T03:07:18.358Z,101432.38
2017-08-22T03:09:46.662Z,101433.37
2017-08-22T03:12:14.965Z,101431.91
2017-08-22T03:14:43.273Z,101423.87
2017-08-22T03:17:11.577Z,101427.46
2017-08-22T03:19:39.887Z,101435.30
2017-08-22T03:22:08.187Z,101435.55
2017-08-22T03:24:36.494Z,101436.45
2017-08-22T03:27:04.817Z,101429.44
2017-08-22T03:29:33.138Z,101433.84
2017-08-22T03:32:01.443Z,101439.34
2017-08-22T03:34:29.766Z,101432.98
2017-08-22T03:36:58.082Z,101436.53
2017-08-22T03:39:26.446Z,101434.47
2017-08-22T03:41:54.749Z,101437.85
2017-08-22T03:44:23.058Z,101439.12
2017-08-22T03:46:52.144Z,101433.60
2017-08-22T03:49:20.448Z,101427.95
2017-08-22T03:51:48.762Z,101425.69
2017-08-22T03:54:17.069Z,101427.33
2017-08-22T03:56:45.389Z,101419.73
2017-08-22T03:59:13.701Z,101418.46
2017-08-22T04:01:42.013Z,101423.74
2017-08-22T04:04:10.313Z,101424.11
2017-08-22T04:06:38.624Z,101421.62
2017-08-22T04:09:06.929Z,101425.14
2017-08-22T04:11:35.242Z,101425.96
2017-08-22T04:14:03.569Z,101422.63
2017-08-22T04:16:31.903Z,101420.77
2017-08-22T04:19:00.213Z,101423.70
2017-08-22T04:21:28.506Z,101427.20
2017-08-22T04:23:56.804Z,101426.14
2017-08-22T04:26:25.109Z,101426.05
2017-08-22T04:28:53.421Z,101421.72
2017-08-22T04:31:21.732Z,101422.79
2017-08-22T04:33:50.038Z,101423.53
2017-08-22T04:36:18.350Z,101431.09
2017-08-22T04:38:46.679Z,101431.75
2017-08-22T04:41:14.997Z,101430.30
2017-08-22T04:43:43.357Z,101435.51
2017-08-22T04:46:11.670Z,101425.43
2017-08-22T04:48:40.026Z,101428.89
2017-08-22T04:51:08.338Z,101434.68
2017-08-22T04:53:36.641Z,101435.51
2017-08-22T04:56:04.970Z,101437.03
2017-08-22T04:58:33.281Z,101443.08
2017-08-22T05:01:01.592Z,101445.35
2017-08-22T05:03:29.911Z,101440.94
2017-08-22T05:05:58.270Z,101428.34
2017-08-22T05:08:26.575Z,101436.41
2017-08-22T05:10:54.888Z,101429.80
2017-08-22T05:13:23.202Z,101422.39
2017-08-22T05:15:51.506Z,101422.48
2017-08-22T05:18:19.819Z,101425.34
2017-08-22T05:20:48.118Z,101427.41
2017-08-22T05:23:16.436Z,101430.18
2017-08-22T05:25:44.764Z,101430.50
2017-08-22T05:28:13.087Z,101429.45
2017-08-22T05:30:41.402Z,101425.07
2017-08-22T05:33:09.709Z,101430.69
2017-08-22T05:35:38.034Z,101431.33
2017-08-22T05:38:06.395Z,101429.33
2017-08-22T05:40:34.718Z,101432.70
2017-08-22T05:43:03.028Z,101429.22
2017-08-22T05:45:31.342Z,101433.73
2017-08-22T05:47:59.654Z,101435.30
2017-08-22T05:50:27.971Z,101431.45
2017-08-22T05:52:56.281Z,101434.28
2017-08-22T05:55:24.604Z,101425.50
2017-08-22T05:57:52.938Z,101431.99
2017-08-22T06:00:21.241Z,101431.88
2017-08-22T06:02:49.554Z,101430.36
2017-08-22T06:05:17.926Z,101431.41
2017-08-22T06:07:46.242Z,101436.03
2017-08-22T06:10:14.576Z,101433.53
2017-08-22T06:12:42.881Z,101432.31
2017-08-22T06:15:11.186Z,101428.75
2017-08-22T06:17:39.514Z,101425.88
2017-08-22T06:20:07.862Z,101431.69
2017-08-22T06:22:36.174Z,101425.64
2017-08-22T06:25:04.486Z,101434.95
2017-08-22T06:27:32.800Z,101431.28
2017-08-22T06:30:01.114Z,101431.36
2017-08-22T06:32:29.421Z,101433.13
2017-08-22T06:34:57.717Z,101426.19
2017-08-22T06:37:26.026Z,101425.05
2017-08-22T06:39:54.986Z,101425.66
2017-08-22T06:42:23.306Z,101431.17
2017-08-22T06:44:51.621Z,101423.89
2017-08-22T06:47:20.275Z,101433.02
2017-08-22T06:49:48.586Z,101429.37
2017-08-22T06:52:16.894Z,101428.45
2017-08-22T06:54:45.245Z,101425.06
2017-08-22T06:57:13.541Z,101427.72
2017-08-22T06:59:41.865Z,101422.80
2017-08-22T07:02:10.175Z,101425.78
2017-08-22T07:04:38.486Z,101434.55
2017-08-22T07:07:06.806Z,101431.72
2017-08-22T07:09:35.122Z,101425.47
2017-08-22T07:12:03.437Z,101428.24
2017-08-22T07:14:31.745Z,101430.69
2017-08-22T07:17:00.050Z,101423.00
2017-08-22T07:19:28.357Z,101430.80
2017-08-22T07:21:56.689Z,101421.28
2017-08-22T07:24:24.990Z,101427.48
2017-08-22T07:26:53.284Z,101430.90
2017-08-22T07:29:21.630Z,101432.73
2017-08-22T07:31:49.962Z,101438.20
2017-08-22T07:34:18.283Z,101439.08
2017-08-22T07:36:46.577Z,101438.57
2017-08-22T07:39:14.895Z,101439.74
2017-08-22T07:41:43.210Z,101435.94
2017-08-22T07:44:11.578Z,101431.89
2017-08-22T07:46:39.894Z,101437.00
2017-08-22T07:49:08.202Z,101435.82
2017-08-22T07:51:36.514Z,101433.09
2017-08-22T07:54:04.839Z,101427.60
2017-08-22T07:56:33.190Z,101432.19
2017-08-22T07:59:01.506Z,101432.77
2017-08-22T08:01:29.815Z,101436.67
2017-08-22T08:03:58.146Z,101440.34
2017-08-22T08:06:26.451Z,101441.47
2017-08-22T08:08:54.749Z,101439.59
2017-08-22T08:11:23.057Z,101436.39
2017-08-22T08:13:51.366Z,101431.81
2017-08-22T08:16:19.726Z,101430.26
2017-08-22T08:18:48.058Z,101437.36
2017-08-22T08:21:16.393Z,101446.00
2017-08-22T08:23:44.714Z,101438.94
2017-08-22T08:26:13.021Z,101446.95
2017-08-22T08:28:41.411Z,101448.46
2017-08-22T08:31:09.720Z,101447.02
2017-08-22T08:33:38.041Z,101447.42
2017-08-22T08:36:06.343Z,101447.31
2017-08-22T08:38:34.680Z,101450.94
2017-08-22T08:41:02.988Z,101451.75
2017-08-22T08:43:31.309Z,101452.30
2017-08-22T08:45:59.626Z,101442.71
2017-08-22T08:48:27.929Z,101444.47
2017-08-22T08:50:56.267Z,101433.21
2017-08-22T08:53:24.584Z,101445.70
2017-08-22T08:55:52.877Z,101445.58
2017-08-22T08:58:21.193Z,101441.48
2017-08-22T09:00:49.485Z,101437.98
2017-08-22T09:03:17.823Z,101438.92
2017-08-22T09:05:46.124Z,101435.25
2017-08-22T09:08:14.430Z,101437.45
2017-08-22T09:10:42.739Z,101429.73
2017-08-22T09:13:11.110Z,101428.41
2017-08-22T09:15:39.450Z,101429.25
2017-08-22T09:18:07.749Z,101431.59
2017-08-22T09:20:36.056Z,101419.66
2017-08-22T09:23:04.371Z,101423.66
2017-08-22T09:25:32.684Z,101428.73
2017-08-22T09:28:01.014Z,101424.80
2017-08-22T09:30:29.315Z,101423.87
2017-08-22T09:32:57.634Z,101422.92
2017-08-22T09:35:25.953Z,101423.32
2017-08-22T09:37:54.284Z,101417.41
2017-08-22T09:40:22.594Z,101413.78
2017-08-22T09:42:50.893Z,101416.08
2017-08-22T09:47:53.698Z,101425.34
2017-08-22T09:50:22.037Z,101412.02
2017-08-22T09:52:50.394Z,101411.83
2017-08-22T09:55:18.702Z,101407.69
2017-08-22T09:57:47.010Z,101406.70
2017-08-22T10:00:15.306Z,101403.36
2017-08-22T10:02:43.637Z,101407.55
2017-08-22T10:05:11.936Z,101406.70
2017-08-22T10:07:40.233Z,101399.70
2017-08-22T10:10:08.569Z,101408.48
2017-08-22T10:12:36.889Z,101410.00
2017-08-22T10:15:05.185Z,101404.50
2017-08-22T10:17:33.512Z,101397.90
2017-08-22T10:20:01.813Z,101400.12
2017-08-22T10:22:30.118Z,101398.55
2017-08-22T10:24:58.441Z,101402.39
2017-08-22T10:27:26.742Z,101401.25
2017-08-22T10:29:55.044Z,101398.56
2017-08-22T10:32:23.421Z,101397.48
2017-08-22T10:34:51.729Z,101392.52
2017-08-22T10:37:20.033Z,101397.25
2017-08-22T10:39:48.370Z,101394.33
2017-08-22T10:42:16.679Z,101384.62
2017-08-22T10:44:44.969Z,101391.55
2017-08-22T10:47:13.299Z,101376.90
2017-08-22T10:49:41.606Z,101380.30
2017-08-22T10:52:09.923Z,101373.24
2017-08-22T10:54:38.253Z,101371.08
2017-08-22T10:57:06.553Z,101380.10
2017-08-22T10:59:34.861Z,101369.92
2017-08-22T11:02:03.197Z,101372.39
2017-08-22T11:04:31.505Z,101370.09
2017-08-22T11:06:59.802Z,101373.87
2017-08-22T11:09:28.137Z,101364.85
2017-08-22T11:11:56.449Z,101371.44
2017-08-22T11:14:24.746Z,101368.06
2017-08-22T11:16:53.089Z,101361.27
2017-08-22T11:19:21.395Z,101366.13
2017-08-22T11:21:49.702Z,101357.88
2017-08-22T11:24:18.056Z,101358.42
2017-08-22T11:26:46.366Z,101361.50
2017-08-22T11:29:14.668Z,101351.86
2017-08-22T11:31:43.007Z,101359.11
2017-08-22T11:34:11.325Z,101363.19
2017-08-22T11:36:39.626Z,101357.28
2017-08-22T11:39:08.086Z,101354.97
2017-08-22T11:41:36.398Z,101358.63
2017-08-22T11:44:04.718Z,101365.23
2017-08-22T11:46:33.025Z,101358.36
2017-08-22T11:49:01.347Z,101359.22
2017-08-22T11:51:29.637Z,101362.70
2017-08-22T11:53:57.949Z,101355.89
2017-08-22T11:56:26.257Z,101366.53
2017-08-22T11:58:54.585Z,101364.75
2017-08-22T12:01:22.898Z,101360.98
2017-08-22T12:03:51.193Z,101359.28
2017-08-22T12:06:19.502Z,101357.52
2017-08-22T12:08:47.806Z,101362.27
2017-08-22T12:11:16.120Z,101360.34
2017-08-22T12:13:44.430Z,101361.20
2017-08-22T12:16:12.737Z,101358.44
2017-08-22T12:18:41.052Z,101360.81
2017-08-22T12:21:09.377Z,101357.96
2017-08-22T12:23:37.690Z,101356.98
2017-08-22T12:26:05.999Z,101352.13
2017-08-22T12:28:34.310Z,101353.33
2017-08-22T12:31:02.635Z,101352.17
2017-08-22T12:33:30.950Z,101356.41
2017-08-22T12:35:59.253Z,101352.45
2017-08-22T12:38:27.582Z,101350.02
2017-08-22T12:40:55.877Z,101347.52
2017-08-22T12:43:24.185Z,101343.47
2017-08-22T12:45:52.513Z,101340.27
2017-08-22T12:48:20.814Z,101341.63
2017-08-22T12:50:49.126Z,101342.91
2017-08-22T12:53:17.427Z,101337.12
2017-08-22T12:55:45.744Z,101337.19
2017-08-22T12:58:14.050Z,101337.38
2017-08-22T13:00:42.391Z,101330.88
2017-08-22T13:03:10.684Z,101334.86
2017-08-22T13:05:39.014Z,101336.75
2017-08-22T13:08:07.327Z,101335.54
2017-08-22T13:10:35.661Z,101332.69
2017-08-22T13:13:03.973Z,101321.02
2017-08-22T13:15:32.278Z,101320.25
2017-08-22T13:18:00.619Z,101317.39
2017-08-22T13:20:28.921Z,101304.58
2017-08-22T13:22:57.221Z,101323.16
2017-08-22T13:25:25.529Z,101334.20
2017-08-22T13:27:53.847Z,101329.55
2017-08-22T13:30:22.153Z,101333.89
2017-08-22T13:32:50.471Z,101323.32
2017-08-22T13:35:18.783Z,101332.91
2017-08-22T13:37:47.090Z,101330.91
2017-08-22T13:40:15.422Z,101326.87
2017-08-22T13:42:43.742Z,101324.45
2017-08-22T13:45:12.046Z,101324.72
2017-08-22T13:47:40.363Z,101322.05
2017-08-22T13:50:08.704Z,101315.85
2017-08-22T13:52:37.018Z,101318.48
2017-08-22T13:55:05.322Z,101295.70
2017-08-22T13:57:33.633Z,101322.59
2017-08-22T14:00:01.941Z,101308.02
2017-08-22T14:02:30.284Z,101302.73
2017-08-22T14:04:58.597Z,101313.31
2017-08-22T14:07:26.905Z,101306.97
2017-08-22T14:09:55.221Z,101315.13
2017-08-22T14:12:23.520Z,101307.05
2017-08-22T14:14:51.834Z,101300.20
2017-08-22T14:17:20.146Z,101300.47
2017-08-22T14:19:48.473Z,101305.88
2017-08-22T14:22:16.794Z,101299.52
2017-08-22T14:24:45.104Z,101298.70
2017-08-22T14:27:13.417Z,101295.21
2017-08-22T14:29:41.730Z,101302.83
2017-08-22T14:32:10.047Z,101299.50
2017-08-22T14:34:38.363Z,101303.32
2017-08-22T14:37:06.684Z,101298.23
2017-08-22T14:39:34.999Z,101306.91
2017-08-22T14:42:03.319Z,101309.09
2017-08-22T14:44:31.622Z,101300.19
2017-08-22T14:46:59.958Z,101304.44
2017-08-22T14:49:28.262Z,101296.35
2017-08-22T14:51:56.571Z,101288.81
2017-08-22T14:54:24.886Z,101296.27
2017-08-22T14:56:53.204Z,101294.83
2017-08-22T14:59:21.521Z,101302.80
2017-08-22T15:01:49.830Z,101299.56
2017-08-22T15:04:18.137Z,101292.14
2017-08-22T15:06:46.444Z,101291.84
2017-08-22T15:09:14.798Z,101301.75
2017-08-22T15:11:43.105Z,101297.17
2017-08-22T15:14:11.415Z,101296.70
2017-08-22T15:16:39.732Z,101291.35
2017-08-22T15:19:08.088Z,101285.80
2017-08-22T15:21:36.407Z,101290.27
2017-08-22T15:24:04.724Z,101288.42
2017-08-22T15:26:33.038Z,101283.16
2017-08-22T15:29:01.343Z,101281.96
2017-08-22T15:31:29.682Z,101285.63
2017-08-22T15:33:57.986Z,101285.50
2017-08-22T15:36:26.312Z,101278.63
2017-08-22T15:38:54.630Z,101283.49
2017-08-22T15:41:22.930Z,101283.23
2017-08-22T15:43:51.245Z,101287.00
2017-08-22T15:46:19.554Z,101287.23
2017-08-22T15:48:47.894Z,101282.59
2017-08-22T15:51:16.202Z,101293.38
2017-08-22T15:53:44.514Z,101290.77
2017-08-22T15:56:12.810Z,101292.20
2017-08-22T15:58:41.133Z,101291.53
2017-08-22T16:01:09.443Z,101284.90
2017-08-22T16:03:37.752Z,101278.45
2017-08-22T16:06:06.062Z,101280.47
2017-08-22T16:08:34.354Z,101277.75
2017-08-22T16:11:02.666Z,101277.74
2017-08-22T16:13:30.982Z,101276.48
2017-08-22T16:15:59.293Z,101271.59
2017-08-22T16:18:27.611Z,101267.58
2017-08-22T16:20:55.940Z,101263.41
2017-08-22T16:23:24.292Z,101264.83
2017-08-22T16:25:52.585Z,101266.40
2017-08-22T16:28:20.897Z,101264.95
2017-08-22T16:30:49.235Z,101264.46
2017-08-22T16:33:17.546Z,101261.45
2017-08-22T16:35:45.858Z,101265.09
2017-08-22T16:38:14.165Z,101263.25
2017-08-22T16:40:42.493Z,101264.78
2017-08-22T16:43:10.813Z,101263.26
2017-08-22T16:45:39.123Z,101264.94
2017-08-22T16:48:07.438Z,101267.98
2017-08-22T16:50:35.749Z,101268.53
2017-08-22T16:53:04.055Z,101270.06
2017-08-22T16:55:32.373Z,101263.72
2017-08-22T16:58:00.675Z,101263.87
2017-08-22T17:00:28.990Z,101264.98
2017-08-22T17:02:57.297Z,101264.44
2017-08-22T17:05:25.605Z,101256.17
2017-08-22T17:07:53.900Z,101253.70
2017-08-22T17:10:22.237Z,101256.47
2017-08-22T17:12:50.546Z,101257.13
2017-08-22T17:15:18.846Z,101257.56
2017-08-22T17:17:47.179Z,101256.47
2017-08-22T17:20:15.487Z,101258.10
2017-08-22T17:22:43.792Z,101261.13
2017-08-22T17:25:12.106Z,101253.81
2017-08-22T17:27:40.435Z,101265.23
2017-08-22T17:30:08.775Z,101265.35
2017-08-22T17:32:37.118Z,101262.59
2017-08-22T17:35:05.422Z,101261.77
2017-08-22T17:37:33.729Z,101261.89
2017-08-22T17:40:02.050Z,101262.02
2017-08-22T17:42:30.359Z,101262.52
2017-08-22T17:44:58.669Z,101262.48
2017-08-22T17:47:26.983Z,101264.00
2017-08-22T17:49:55.293Z,101259.39
2017-08-22T17:52:23.592Z,101262.81
2017-08-22T17:54:51.939Z,101271.08
2017-08-22T17:57:20.251Z,101264.55
2017-08-22T17:59:48.563Z,101271.11
2017-08-22T18:02:16.879Z,101269.00
2017-08-22T18:04:45.173Z,101266.88
2017-08-22T18:07:13.502Z,101272.16
2017-08-22T18:09:41.801Z,101263.06
2017-08-22T18:12:10.118Z,101276.27
2017-08-22T18:14:39.214Z,101269.20
2017-08-22T18:17:07.563Z,101273.79
2017-08-22T18:19:35.874Z,101277.00
2017-08-22T18:22:04.181Z,101279.38
2017-08-22T18:24:32.498Z,101274.91
2017-08-22T18:27:00.821Z,101273.74
2017-08-22T18:29:29.142Z,101270.36
2017-08-22T18:31:57.450Z,101272.08
2017-08-22T18:34:25.762Z,101273.00
2017-08-22T18:36:54.074Z,101271.66
2017-08-22T18:39:22.415Z,101277.11
2017-08-22T18:41:50.718Z,101276.91
2017-08-22T18:44:19.407Z,101277.37
2017-08-22T18:46:47.717Z,101276.58
2017-08-22T18:49:16.030Z,101276.88
2017-08-22T18:51:44.342Z,101271.96
2017-08-22T18:54:12.640Z,101275.41
2017-08-22T18:56:40.962Z,101274.63
2017-08-22T18:59:09.276Z,101277.49
2017-08-22T19:01:37.608Z,101284.61
2017-08-22T19:04:05.914Z,101279.95
2017-08-22T19:06:34.223Z,101278.27
2017-08-22T19:09:02.545Z,101285.84
2017-08-22T19:11:30.849Z,101283.87
2017-08-22T19:13:59.166Z,101282.63
2017-08-22T19:16:27.474Z,101282.95
2017-08-22T19:18:55.791Z,101279.30
2017-08-22T19:21:24.089Z,101279.89
2017-08-22T19:23:52.401Z,101277.23
2017-08-22T19:26:20.713Z,101279.78
2017-08-22T19:28:49.056Z,101277.41
2017-08-22T19:31:17.375Z,101279.44
2017-08-22T19:33:45.694Z,101274.36
2017-08-22T19:36:14.010Z,101280.77
2017-08-22T19:38:42.323Z,101284.00
2017-08-22T19:41:10.647Z,101278.43
2017-08-22T19:43:38.954Z,101278.15
2017-08-22T19:46:07.270Z,101275.00
2017-08-22T19:48:35.574Z,101282.66
2017-08-22T19:51:03.911Z,101278.50
2017-08-22T19:53:32.234Z,101280.64
2017-08-22T19:56:00.537Z,101276.72
2017-08-22T19:58:28.850Z,101279.65
2017-08-22T20:00:57.169Z,101280.42
2017-08-22T20:03:25.485Z,101274.03
2017-08-22T20:05:53.795Z,101278.47
2017-08-22T20:08:22.112Z,101275.55
2017-08-22T20:10:50.440Z,101279.05
2017-08-22T20:13:18.739Z,101279.74
2017-08-22T20:15:47.066Z,101284.81
2017-08-22T20:18:15.378Z,101273.42
2017-08-22T20:20:43.701Z,101273.09
2017-08-22T20:23:12.006Z,101274.11
2017-08-22T20:25:40.347Z,101269.47
2017-08-22T20:28:08.666Z,101267.63
2017-08-22T20:30:36.980Z,101267.70
2017-08-22T20:33:05.293Z,101270.83
2017-08-22T20:35:33.602Z,101272.27
2017-08-22T20:38:01.906Z,101268.31
2017-08-22T20:40:30.220Z,101269.78
2017-08-22T20:42:58.535Z,101268.06
2017-08-22T20:45:26.866Z,101267.64
2017-08-22T20:47:55.178Z,101266.47
2017-08-22T20:50:23.497Z,101274.80
2017-08-22T20:52:51.807Z,101274.19
2017-08-22T20:55:20.182Z,101272.06
2017-08-22T20:57:48.493Z,101269.02
2017-08-22T21:00:16.811Z,101269.40
2017-08-22T21:02:45.123Z,101269.75
2017-08-22T21:05:13.461Z,101122.02
2017-08-22T21:07:41.774Z,101272.31
2017-08-22T21:10:10.083Z,101268.58
2017-08-22T21:12:38.409Z,101267.75
2017-08-22T21:15:06.714Z,101265.94
2017-08-22T21:17:35.041Z,101265.52
2017-08-22T21:20:03.349Z,101260.57
2017-08-22T21:22:31.667Z,101265.99
2017-08-22T21:24:59.977Z,101266.63
2017-08-22T21:27:28.313Z,101268.12
2017-08-22T21:29:56.613Z,101264.09
2017-08-22T21:32:24.916Z,101262.66
2017-08-22T21:34:53.233Z,101263.42
2017-08-22T21:37:21.552Z,101263.88
2017-08-22T21:39:49.867Z,101261.69
2017-08-22T21:42:18.172Z,101256.25
2017-08-22T21:44:46.487Z,101258.41
2017-08-22T21:47:14.793Z,101262.27
2017-08-22T21:49:43.142Z,101255.73
2017-08-22T21:52:11.461Z,101259.05
2017-08-22T21:54:39.759Z,101256.89
2017-08-22T21:57:08.090Z,101257.62
2017-08-22T21:59:36.390Z,101253.60
2017-08-22T22:02:04.699Z,101254.14
2017-08-22T22:04:33.042Z,101251.75
2017-08-22T22:07:01.342Z,101263.28
2017-08-22T22:09:29.649Z,101249.30
2017-08-22T22:11:57.982Z,101252.12
2017-08-22T22:14:26.277Z,101253.83
2017-08-22T22:16:54.585Z,101250.87
2017-08-22T22:19:22.930Z,101254.16
2017-08-22T22:21:51.242Z,101258.05
2017-08-22T22:24:19.545Z,101260.43
2017-08-22T22:26:47.888Z,101255.52
2017-08-22T22:29:16.196Z,101253.95
2017-08-22T22:31:44.499Z,101256.52
2017-08-22T22:34:12.837Z,101253.94
2017-08-22T22:36:41.142Z,101261.28
2017-08-22T22:39:09.446Z,101251.70
2017-08-22T22:41:37.779Z,101250.67
2017-08-22T22:44:06.074Z,101253.23
2017-08-22T22:46:34.373Z,101249.34
2017-08-22T22:49:02.750Z,101251.61
2017-08-22T22:51:31.070Z,101250.80
2017-08-22T22:53:59.442Z,101250.47
2017-08-22T22:56:27.786Z,101253.87
2017-08-22T22:58:56.095Z,101252.94
2017-08-22T23:01:24.399Z,101247.70
2017-08-22T23:03:52.751Z,101246.06
2017-08-22T23:06:21.057Z,101246.47
2017-08-22T23:08:49.370Z,101250.27
2017-08-22T23:11:18.085Z,101252.29
2017-08-22T23:13:46.385Z,101249.11
2017-08-22T23:16:14.678Z,101248.86
2017-08-22T23:18:43.022Z,101246.06
2017-08-22T23:21:11.333Z,101250.47
2017-08-22T23:23:39.641Z,101248.64
2017-08-22T23:26:07.981Z,101244.88
2017-08-22T23:28:36.295Z,101240.34
2017-08-22T23:31:04.610Z,101236.02
2017-08-22T23:33:32.944Z,101238.55
2017-08-22T23:36:01.259Z,101239.77
2017-08-22T23:38:29.566Z,101247.69
2017-08-22T23:40:57.929Z,101247.01
2017-08-22T23:43:26.230Z,101247.42
2017-08-22T23:45:54.534Z,101246.30
2017-08-22T23:48:22.873Z,101249.91
2017-08-22T23:50:51.167Z,101241.81
2017-08-22T23:53:19.473Z,101249.16
2017-08-22T23:55:47.806Z,101253.69
2017-08-22T23:58:16.110Z,101258.02
